createdAt,value
2022-12-23T00:01:02.784Z,98462.37
2022-12-23T00:03:52.418Z,98461.05
2022-12-23T00:06:40.504Z,98461.23
2022-12-23T00:09:28.625Z,98460.13
2022-12-23T00:12:35.265Z,98457.23
2022-12-23T00:15:23.435Z,98452.02
2022-12-23T00:18:11.582Z,98449.69
2022-12-23T00:21:08.236Z,98449.77
2022-12-23T00:23:57.124Z,98451.53
2022-12-23T00:26:45.553Z,98451.48
2022-12-23T00:29:33.560Z,98456.25
2022-12-23T00:32:21.607Z,98457.18
2022-12-23T00:35:10.018Z,98456.57
2022-12-23T00:37:58.299Z,98463.83
2022-12-23T00:41:09.640Z,98466.59
2022-12-23T00:43:57.975Z,98469.60
2022-12-23T00:46:46.064Z,98468.56
2022-12-23T00:49:42.967Z,98468.55
2022-12-23T00:52:30.929Z,98468.01
2022-12-23T00:55:19.572Z,98469.80
2022-12-23T00:58:07.641Z,98464.34
2022-12-23T01:01:13.920Z,98465.89
2022-12-23T01:04:20.968Z,98461.39
2022-12-23T01:07:08.932Z,98455.67
2022-12-23T01:09:57.119Z,98469.86
2022-12-23T01:12:45.084Z,98465.42
2022-12-23T01:15:33.549Z,98472.35
2022-12-23T01:18:21.499Z,98476.23
2022-12-23T01:21:10.956Z,98477.90
2022-12-23T01:23:58.696Z,98471.21
2022-12-23T01:26:46.752Z,98471.85
2022-12-23T01:29:34.483Z,98467.33
2022-12-23T01:32:22.145Z,98472.07
2022-12-23T01:35:09.984Z,98473.81
2022-12-23T01:37:57.586Z,98472.61
2022-12-23T01:40:46.081Z,98472.45
2022-12-23T01:43:52.254Z,98468.94
2022-12-23T01:46:40.180Z,98468.36
2022-12-23T01:49:27.957Z,98467.23
2022-12-23T01:52:15.925Z,98464.70
2022-12-23T01:55:04.436Z,98472.20
2022-12-23T01:57:56.879Z,98471.76
2022-12-23T02:01:03.904Z,98475.67
2022-12-23T02:03:57.827Z,98479.19
2022-12-23T02:07:08.257Z,98482.98
2022-12-23T02:09:56.557Z,98483.87
2022-12-23T02:13:14.286Z,98485.12
2022-12-23T02:16:19.128Z,98483.52
2022-12-23T02:19:23.061Z,98476.98
2022-12-23T02:23:24.773Z,98476.34
2022-12-23T02:26:55.376Z,98473.86
2022-12-23T02:30:29.426Z,98476.14
2022-12-23T02:33:51.651Z,98468.63
2022-12-23T02:37:05.709Z,98464.35
2022-12-23T02:40:11.849Z,98465.38
2022-12-23T02:43:12.908Z,98459.38
2022-12-23T02:46:36.374Z,98458.35
2022-12-23T02:49:36.644Z,98465.70
2022-12-23T02:52:32.901Z,98469.32
2022-12-23T02:55:32.940Z,98464.31
2022-12-23T02:58:27.809Z,98464.29
2022-12-23T03:01:17.905Z,98469.90
2022-12-23T03:04:06.920Z,98466.87
2022-12-23T03:06:57.510Z,98467.23
2022-12-23T03:10:12.684Z,98465.98
2022-12-23T03:13:47.768Z,98466.21
2022-12-23T03:16:53.408Z,98464.23
2022-12-23T03:20:42.537Z,98464.16
2022-12-23T03:23:56.810Z,98471.59
2022-12-23T03:27:24.151Z,98476.86
2022-12-23T03:30:19.800Z,98478.84
2022-12-23T03:33:49.695Z,98473.73
2022-12-23T03:36:50.596Z,98468.00
2022-12-23T03:39:53.065Z,98468.55
2022-12-23T03:42:46.631Z,98466.16
2022-12-23T03:45:48.538Z,98472.36
2022-12-23T03:48:45.687Z,98474.18
2022-12-23T03:51:47.589Z,98469.63
2022-12-23T03:54:53.189Z,98472.70
2022-12-23T03:57:48.176Z,98470.36
2022-12-23T04:00:43.903Z,98470.00
2022-12-23T04:04:12.016Z,98472.55
2022-12-23T04:07:10.497Z,98469.38
2022-12-23T04:09:59.926Z,98467.63
2022-12-23T04:12:49.192Z,98466.61
2022-12-23T04:15:41.532Z,98467.84
2022-12-23T04:18:29.984Z,98471.95
2022-12-23T04:21:17.962Z,98470.88
2022-12-23T04:24:06.579Z,98473.04
2022-12-23T04:26:54.550Z,98469.73
2022-12-23T04:29:43.795Z,98468.13
2022-12-23T04:32:31.604Z,98468.59
2022-12-23T04:35:19.912Z,98468.98
2022-12-23T04:38:08.115Z,98472.46
2022-12-23T04:40:56.215Z,98471.08
2022-12-23T04:43:49.293Z,98472.48
2022-12-23T04:46:40.913Z,98471.02
2022-12-23T04:49:28.847Z,98469.49
2022-12-23T04:52:16.854Z,98466.80
2022-12-23T04:55:05.618Z,98465.35
2022-12-23T04:57:53.490Z,98466.39
2022-12-23T05:00:41.351Z,98460.27
2022-12-23T05:03:29.654Z,98464.33
2022-12-23T05:06:17.668Z,98476.34
2022-12-23T05:09:05.955Z,98478.45
2022-12-23T05:11:53.751Z,98473.20
2022-12-23T05:14:41.571Z,98471.48
2022-12-23T05:17:29.435Z,98477.17
2022-12-23T05:20:17.365Z,98472.95
2022-12-23T05:23:05.088Z,98468.69
2022-12-23T05:25:54.717Z,98465.00
2022-12-23T05:28:45.581Z,98471.08
2022-12-23T05:31:33.528Z,98465.61
2022-12-23T05:34:22.306Z,98463.77
2022-12-23T05:37:10.170Z,98464.80
2022-12-23T05:39:58.002Z,98456.67
2022-12-23T05:42:45.892Z,98451.84
2022-12-23T05:45:36.882Z,98458.89
2022-12-23T05:48:25.331Z,98450.53
2022-12-23T05:51:13.089Z,98444.55
2022-12-23T05:54:01.064Z,98446.08
2022-12-23T05:56:48.727Z,98455.95
2022-12-23T05:59:36.815Z,98460.70
2022-12-23T06:02:25.232Z,98464.74
2022-12-23T06:05:13.666Z,98462.83
2022-12-23T06:08:01.431Z,98462.32
2022-12-23T06:10:49.375Z,98464.84
2022-12-23T06:13:37.153Z,98470.06
2022-12-23T06:16:24.910Z,98467.35
2022-12-23T06:19:12.941Z,98458.92
2022-12-23T06:22:00.961Z,98460.41
2022-12-23T06:24:49.011Z,98459.16
2022-12-23T06:27:37.042Z,98457.17
2022-12-23T06:30:24.914Z,98461.73
2022-12-23T06:33:13.038Z,98468.30
2022-12-23T06:36:00.882Z,98467.96
2022-12-23T06:38:49.093Z,98472.59
2022-12-23T06:41:37.031Z,98475.77
2022-12-23T06:44:25.175Z,98476.56
2022-12-23T06:47:13.030Z,98487.10
2022-12-23T06:50:01.193Z,98487.97
2022-12-23T06:52:49.290Z,98486.33
2022-12-23T06:55:37.598Z,98487.15
2022-12-23T06:58:25.479Z,98491.35
2022-12-23T07:01:13.632Z,98493.23
2022-12-23T07:04:02.158Z,98492.44
2022-12-23T07:06:50.248Z,98498.56
2022-12-23T07:09:38.260Z,98497.23
2022-12-23T07:12:26.468Z,98503.69
2022-12-23T07:15:14.452Z,98502.84
2022-12-23T07:18:02.220Z,98508.50
2022-12-23T07:20:51.670Z,98506.35
2022-12-23T07:23:39.214Z,98510.98
2022-12-23T07:26:27.264Z,98507.06
2022-12-23T07:29:15.411Z,98514.23
2022-12-23T07:32:04.800Z,98518.27
2022-12-23T07:34:52.717Z,98517.73
2022-12-23T07:37:40.503Z,98516.40
2022-12-23T07:40:28.721Z,98510.37
2022-12-23T07:43:17.105Z,98515.08
2022-12-23T07:46:10.044Z,98523.25
2022-12-23T07:48:58.265Z,98523.83
2022-12-23T07:51:46.248Z,98519.04
2022-12-23T07:54:34.328Z,98509.11
2022-12-23T07:57:22.533Z,98505.11
2022-12-23T08:00:12.647Z,98503.89
2022-12-23T08:03:00.559Z,98507.58
2022-12-23T08:05:48.346Z,98503.32
2022-12-23T08:08:36.355Z,98507.38
2022-12-23T08:11:24.609Z,98506.30
2022-12-23T08:14:12.447Z,98509.17
2022-12-23T08:17:00.330Z,98511.61
2022-12-23T08:19:51.254Z,98511.23
2022-12-23T08:22:39.406Z,98511.86
2022-12-23T08:25:27.100Z,98511.55
2022-12-23T08:28:15.089Z,98510.78
2022-12-23T08:31:14.871Z,98514.42
2022-12-23T08:34:02.874Z,98518.57
2022-12-23T08:36:50.786Z,98519.45
2022-12-23T08:39:38.987Z,98520.91
2022-12-23T08:42:26.847Z,98522.95
2022-12-23T08:45:16.145Z,98521.54
2022-12-23T08:48:05.256Z,98524.67
2022-12-23T08:50:53.375Z,98526.49
2022-12-23T08:53:41.446Z,98530.41
2022-12-23T08:56:34.545Z,98531.46
2022-12-23T08:59:22.394Z,98529.65
2022-12-23T09:02:11.877Z,98520.27
2022-12-23T09:05:00.017Z,98527.32
2022-12-23T09:07:48.014Z,98531.36
2022-12-23T09:10:44.623Z,98534.48
2022-12-23T09:13:35.583Z,98534.02
2022-12-23T09:16:24.029Z,98527.96
2022-12-23T09:19:12.352Z,98525.98
2022-12-23T09:22:00.417Z,98525.77
2022-12-23T09:24:48.410Z,98520.30
2022-12-23T09:27:36.495Z,98521.44
2022-12-23T09:30:25.054Z,98523.17
2022-12-23T09:33:12.953Z,98522.20
2022-12-23T09:36:01.847Z,98523.02
2022-12-23T09:38:58.104Z,98523.40
2022-12-23T09:41:54.524Z,98523.64
2022-12-23T09:45:11.811Z,98521.14
2022-12-23T09:48:01.220Z,98518.94
2022-12-23T09:50:49.412Z,98520.17
2022-12-23T09:54:16.872Z,98523.08
2022-12-23T09:57:23.137Z,98510.56
2022-12-23T10:00:14.686Z,98505.60
2022-12-23T10:03:26.127Z,98504.59
2022-12-23T10:06:31.286Z,98511.05
2022-12-23T10:09:19.959Z,98506.52
2022-12-23T10:12:43.859Z,98508.91
2022-12-23T10:15:43.651Z,98509.48
2022-12-23T10:18:57.597Z,98512.18
2022-12-23T10:22:12.075Z,98502.29
2022-12-23T10:25:03.389Z,98503.11
2022-12-23T10:27:51.770Z,98497.71
2022-12-23T10:31:23.805Z,98496.15
2022-12-23T10:34:05.510Z,98493.56
2022-12-23T10:37:30.873Z,98492.20
2022-12-23T10:40:49.508Z,98497.61
2022-12-23T10:44:27.792Z,98506.27
2022-12-23T10:48:05.115Z,98512.58
2022-12-23T10:51:28.685Z,98518.11
2022-12-23T10:54:25.533Z,98517.31
2022-12-23T10:57:16.979Z,98515.60
2022-12-23T11:00:21.404Z,98515.95
2022-12-23T11:03:24.238Z,98515.20
2022-12-23T11:06:13.402Z,98512.29
2022-12-23T11:09:03.338Z,98512.13
2022-12-23T11:11:54.526Z,98509.77
2022-12-23T11:14:56.671Z,98507.10
2022-12-23T11:17:58.987Z,98512.01
2022-12-23T11:21:07.000Z,98516.45
2022-12-23T11:24:22.312Z,98520.96
2022-12-23T11:27:16.226Z,98520.57
2022-12-23T11:30:04.869Z,98517.77
2022-12-23T11:32:53.053Z,98519.33
2022-12-23T11:35:41.451Z,98528.78
2022-12-23T11:38:30.048Z,98531.49
2022-12-23T11:41:30.292Z,98532.22
2022-12-23T11:44:31.146Z,98531.14
2022-12-23T11:47:23.057Z,98526.17
2022-12-23T11:50:20.733Z,98524.73
2022-12-23T11:53:20.149Z,98525.23
2022-12-23T11:56:13.875Z,98523.70
2022-12-23T11:59:07.988Z,98527.13
2022-12-23T12:02:04.055Z,98525.70
2022-12-23T12:05:02.651Z,98520.45
2022-12-23T12:07:51.759Z,98511.80
2022-12-23T12:10:42.156Z,98513.34
2022-12-23T12:13:39.810Z,98513.29
2022-12-23T12:17:04.721Z,98513.67
2022-12-23T12:20:20.627Z,98511.89
2022-12-23T12:23:42.084Z,98507.00
2022-12-23T12:26:37.049Z,98508.52
2022-12-23T12:29:50.916Z,98512.88
2022-12-23T12:33:01.028Z,98511.42
2022-12-23T12:36:04.969Z,98516.27
2022-12-23T12:38:58.293Z,98516.77
2022-12-23T12:42:05.747Z,98517.74
2022-12-23T12:45:28.171Z,98513.46
2022-12-23T12:48:23.447Z,98517.67
2022-12-23T12:51:58.419Z,98519.53
2022-12-23T12:55:20.293Z,98514.52
2022-12-23T12:58:24.148Z,98517.05
2022-12-23T13:01:17.938Z,98516.14
2022-12-23T13:04:49.289Z,98518.99
2022-12-23T13:08:12.628Z,98524.84
2022-12-23T13:11:29.014Z,98527.55
2022-12-23T13:15:10.244Z,98528.84
2022-12-23T13:18:22.535Z,98526.58
2022-12-23T13:21:22.194Z,98519.55
2022-12-23T13:24:35.092Z,98520.77
2022-12-23T13:27:38.999Z,98516.45
2022-12-23T13:30:39.357Z,98519.56
2022-12-23T13:34:05.738Z,98519.00
2022-12-23T13:37:33.400Z,98523.79
2022-12-23T13:40:33.870Z,98527.55
2022-12-23T13:43:29.058Z,98527.67
2022-12-23T13:46:38.471Z,98530.34
2022-12-23T13:49:50.704Z,98526.80
2022-12-23T13:53:04.613Z,98528.07
2022-12-23T13:56:06.759Z,98529.36
2022-12-23T13:58:55.909Z,98525.36
2022-12-23T14:01:48.499Z,98520.28
2022-12-23T14:04:58.742Z,98522.73
2022-12-23T14:07:47.073Z,98521.48
2022-12-23T14:10:36.341Z,98521.98
2022-12-23T14:13:31.836Z,98518.97
2022-12-23T14:16:41.639Z,98526.73
2022-12-23T14:20:22.892Z,98523.63
2022-12-23T14:23:39.245Z,98524.92
2022-12-23T14:26:52.483Z,98526.73
2022-12-23T14:30:05.180Z,98533.71
2022-12-23T14:33:03.106Z,98536.35
2022-12-23T14:36:15.292Z,98534.48
2022-12-23T14:39:12.107Z,98538.18
2022-12-23T14:42:06.494Z,98542.31
2022-12-23T14:45:06.012Z,98545.75
2022-12-23T14:47:54.139Z,98553.17
2022-12-23T14:50:57.864Z,98554.21
2022-12-23T14:53:56.727Z,98551.17
2022-12-23T14:56:47.632Z,98555.61
2022-12-23T14:59:51.483Z,98559.06
2022-12-23T15:02:41.412Z,98563.45
2022-12-23T15:05:30.422Z,98572.19
2022-12-23T15:08:39.477Z,98568.59
2022-12-23T15:11:30.858Z,98566.36
2022-12-23T15:14:42.007Z,98567.27
2022-12-23T15:17:34.320Z,98574.75
2022-12-23T15:20:25.967Z,98575.16
2022-12-23T15:23:17.648Z,98575.48
2022-12-23T15:26:05.571Z,98575.60
2022-12-23T15:28:54.346Z,98570.46
2022-12-23T15:31:43.357Z,98570.92
2022-12-23T15:34:34.226Z,98574.83
2022-12-23T15:37:29.711Z,98574.14
2022-12-23T15:40:33.632Z,98575.23
2022-12-23T15:43:24.098Z,98572.30
2022-12-23T15:46:29.146Z,98569.42
2022-12-23T15:49:21.841Z,98573.08
2022-12-23T15:52:18.274Z,98574.67
2022-12-23T15:55:28.155Z,98578.06
2022-12-23T15:58:23.644Z,98581.58
2022-12-23T16:01:18.182Z,98582.17
2022-12-23T16:04:08.949Z,98583.89
2022-12-23T16:06:57.006Z,98588.71
2022-12-23T16:09:45.127Z,98585.64
2022-12-23T16:12:34.906Z,98582.55
2022-12-23T16:15:30.556Z,98587.83
2022-12-23T16:18:32.801Z,98602.95
2022-12-23T16:21:20.706Z,98607.45
2022-12-23T16:24:09.875Z,98607.92
2022-12-23T16:26:58.079Z,98608.80
2022-12-23T16:29:49.225Z,98615.66
2022-12-23T16:32:54.800Z,98616.55
2022-12-23T16:35:44.063Z,98619.14
2022-12-23T16:38:32.020Z,98620.25
2022-12-23T16:41:20.796Z,98628.14
2022-12-23T16:44:09.228Z,98624.45
2022-12-23T16:47:00.588Z,98629.14
2022-12-23T16:49:50.547Z,98635.13
2022-12-23T16:52:40.382Z,98645.27
2022-12-23T16:55:28.668Z,98654.19
2022-12-23T16:58:16.531Z,98654.81
2022-12-23T17:01:05.653Z,98652.27
2022-12-23T17:03:54.236Z,98656.25
2022-12-23T17:06:42.900Z,98659.34
2022-12-23T17:09:30.777Z,98656.60
2022-12-23T17:12:19.228Z,98655.62
2022-12-23T17:15:10.908Z,98656.39
2022-12-23T17:17:59.302Z,98657.39
2022-12-23T17:20:49.020Z,98662.77
2022-12-23T17:23:36.814Z,98671.02
2022-12-23T17:26:25.495Z,98673.86
2022-12-23T17:29:13.463Z,98661.91
2022-12-23T17:32:02.026Z,98659.98
2022-12-23T17:34:49.876Z,98664.85
2022-12-23T17:37:40.611Z,98665.25
2022-12-23T17:40:36.926Z,98670.97
2022-12-23T17:43:27.670Z,98669.86
2022-12-23T17:46:15.913Z,98671.48
2022-12-23T17:49:04.506Z,98667.20
2022-12-23T17:51:52.711Z,98665.69
2022-12-23T17:54:40.742Z,98669.25
2022-12-23T17:57:28.562Z,98665.31
2022-12-23T18:00:28.026Z,98662.17
2022-12-23T18:03:24.043Z,98663.52
2022-12-23T18:06:18.724Z,98668.45
2022-12-23T18:09:06.863Z,98677.88
2022-12-23T18:11:55.862Z,98684.34
2022-12-23T18:14:45.137Z,98696.15
2022-12-23T18:17:33.247Z,98698.97
2022-12-23T18:20:23.842Z,98693.09
2022-12-23T18:23:28.952Z,98692.11
2022-12-23T18:26:17.199Z,98697.41
2022-12-23T18:29:05.255Z,98695.73
2022-12-23T18:31:53.185Z,98694.52
2022-12-23T18:34:41.352Z,98698.15
2022-12-23T18:37:29.378Z,98702.30
2022-12-23T18:40:17.945Z,98711.61
2022-12-23T18:43:06.666Z,98713.96
2022-12-23T18:45:54.774Z,98714.16
2022-12-23T18:48:43.458Z,98723.11
2022-12-23T18:51:31.839Z,98730.77
2022-12-23T18:54:19.973Z,98729.12
2022-12-23T18:57:10.679Z,98731.32
2022-12-23T18:59:58.663Z,98735.11
2022-12-23T19:02:48.184Z,98745.67
2022-12-23T19:05:36.427Z,98752.05
2022-12-23T19:08:27.654Z,98756.27
2022-12-23T19:11:20.557Z,98758.48
2022-12-23T19:14:11.442Z,98758.41
2022-12-23T19:17:01.155Z,98761.40
2022-12-23T19:19:49.549Z,98761.35
2022-12-23T19:22:37.925Z,98761.06
2022-12-23T19:25:26.055Z,98762.64
2022-12-23T19:28:14.101Z,98765.07
2022-12-23T19:31:11.229Z,98761.64
2022-12-23T19:34:00.243Z,98764.59
2022-12-23T19:36:48.166Z,98764.91
2022-12-23T19:39:36.506Z,98765.99
2022-12-23T19:42:24.526Z,98759.64
2022-12-23T19:45:12.669Z,98756.27
2022-12-23T19:48:00.443Z,98763.33
2022-12-23T19:50:59.942Z,98767.79
2022-12-23T19:53:51.863Z,98773.54
2022-12-23T19:56:39.847Z,98775.81
2022-12-23T19:59:28.083Z,98782.87
2022-12-23T20:02:17.932Z,98780.30
2022-12-23T20:05:06.319Z,98783.64
2022-12-23T20:07:54.299Z,98786.88
2022-12-23T20:10:43.886Z,98786.39
2022-12-23T20:13:32.226Z,98786.11
2022-12-23T20:16:20.420Z,98780.61
2022-12-23T20:19:08.759Z,98786.73
2022-12-23T20:21:57.219Z,98790.77
2022-12-23T20:24:45.286Z,98797.16
2022-12-23T20:27:33.115Z,98799.44
2022-12-23T20:30:20.997Z,98798.79
2022-12-23T20:33:10.480Z,98801.80
2022-12-23T20:35:58.545Z,98809.46
2022-12-23T20:38:47.556Z,98807.94
2022-12-23T20:41:35.684Z,98809.34
2022-12-23T20:44:34.404Z,98807.98
2022-12-23T20:47:24.047Z,98812.59
2022-12-23T20:50:12.044Z,98818.59
2022-12-23T20:52:59.994Z,98819.40
2022-12-23T20:55:48.024Z,98816.48
2022-12-23T20:58:54.687Z,98816.61
2022-12-23T21:01:43.179Z,98821.71
2022-12-23T21:04:31.504Z,98820.09
2022-12-23T21:07:19.261Z,98823.93
2022-12-23T21:10:09.226Z,98830.04
2022-12-23T21:12:57.048Z,98828.95
2022-12-23T21:15:45.756Z,98834.67
2022-12-23T21:18:35.097Z,98835.22
2022-12-23T21:21:26.579Z,98831.45
2022-12-23T21:24:15.313Z,98828.71
2022-12-23T21:27:03.158Z,98831.05
2022-12-23T21:29:51.186Z,98836.09
2022-12-23T21:32:39.045Z,98838.45
2022-12-23T21:35:27.386Z,98849.88
2022-12-23T21:38:15.342Z,98855.53
2022-12-23T21:41:08.173Z,98855.46
2022-12-23T21:43:58.046Z,98857.46
2022-12-23T21:46:46.491Z,98868.95
2022-12-23T21:49:34.655Z,98867.05
2022-12-23T21:52:22.568Z,98865.34
2022-12-23T21:55:15.724Z,98861.89
2022-12-23T21:58:04.018Z,98864.39
2022-12-23T22:00:52.107Z,98864.28
2022-12-23T22:03:41.126Z,98870.94
2022-12-23T22:06:38.764Z,98876.35
2022-12-23T22:09:26.717Z,98875.52
2022-12-23T22:12:14.606Z,98874.64
2022-12-23T22:15:06.336Z,98876.23
2022-12-23T22:17:59.291Z,98879.85
2022-12-23T22:20:47.187Z,98882.66
2022-12-23T22:23:36.611Z,98885.58
2022-12-23T22:26:30.141Z,98885.09
2022-12-23T22:29:19.384Z,98881.34
2022-12-23T22:32:07.476Z,98885.45
2022-12-23T22:34:55.647Z,98891.23
2022-12-23T22:37:43.819Z,98897.99
2022-12-23T22:40:31.590Z,98900.89
2022-12-23T22:43:20.282Z,98903.73
2022-12-23T22:46:08.699Z,98904.54
2022-12-23T22:48:56.993Z,98904.77
2022-12-23T22:51:45.181Z,98905.62
2022-12-23T22:54:33.185Z,98904.55
2022-12-23T22:57:20.987Z,98900.11
2022-12-23T23:00:12.871Z,98906.88
2022-12-23T23:03:01.037Z,98909.85
2022-12-23T23:06:07.293Z,98908.90
2022-12-23T23:08:56.088Z,98907.16
2022-12-23T23:11:44.668Z,98910.79
2022-12-23T23:14:52.426Z,98908.84
2022-12-23T23:17:40.555Z,98906.64
2022-12-23T23:20:28.518Z,98906.84
2022-12-23T23:23:16.797Z,98907.11
2022-12-23T23:26:05.351Z,98911.98
2022-12-23T23:28:54.653Z,98914.41
2022-12-23T23:31:43.688Z,98919.79
2022-12-23T23:34:33.580Z,98925.33
2022-12-23T23:37:21.393Z,98926.52
2022-12-23T23:40:10.110Z,98929.63
2022-12-23T23:42:58.158Z,98927.55
2022-12-23T23:45:46.723Z,98930.05
2022-12-23T23:48:37.906Z,98934.20
2022-12-23T23:51:26.124Z,98938.54
2022-12-23T23:54:13.848Z,98931.70
2022-12-23T23:57:01.724Z,98930.90
2022-12-23T23:59:50.030Z,98931.41
